sensor_id;sensor_type;location;lat;lon;timestamp;temperature;humidity
7411;DHT22;3747;48.628;9.058;2023-04-01T00:01:26;6.40;99.90
7411;DHT22;3747;48.628;9.058;2023-04-01T00:03:53;6.40;99.90
7411;DHT22;3747;48.628;9.058;2023-04-01T00:06:23;6.40;99.90
7411;DHT22;3747;48.628;9.058;2023-04-01T00:08:50;6.40;99.90
7411;DHT22;3747;48.628;9.058;2023-04-01T00:11:18;6.40;99.90
7411;DHT22;3747;48.628;9.058;2023-04-01T00:13:45;6.40;99.90
7411;DHT22;3747;48.628;9.058;2023-04-01T00:16:12;6.40;99.90
7411;DHT22;3747;48.628;9.058;2023-04-01T00:18:39;6.30;99.90
7411;DHT22;3747;48.628;9.058;2023-04-01T00:21:06;6.30;99.90
7411;DHT22;3747;48.628;9.058;2023-04-01T00:23:34;6.30;99.90
7411;DHT22;3747;48.628;9.058;2023-04-01T00:26:02;6.30;99.90
7411;DHT22;3747;48.628;9.058;2023-04-01T00:28:29;6.30;99.90
7411;DHT22;3747;48.628;9.058;2023-04-01T00:30:56;6.30;99.90
7411;DHT22;3747;48.628;9.058;2023-04-01T00:33:23;6.30;99.90
7411;DHT22;3747;48.628;9.058;2023-04-01T00:35:50;6.40;99.90
7411;DHT22;3747;48.628;9.058;2023-04-01T00:38:16;6.40;99.90
7411;DHT22;3747;48.628;9.058;2023-04-01T00:40:46;6.40;99.90
7411;DHT22;3747;48.628;9.058;2023-04-01T00:43:14;6.40;99.90
7411;DHT22;3747;48.628;9.058;2023-04-01T00:45:44;6.40;99.90
7411;DHT22;3747;48.628;9.058;2023-04-01T00:48:14;6.40;99.90
7411;DHT22;3747;48.628;9.058;2023-04-01T00:50:46;6.40;99.90
7411;DHT22;3747;48.628;9.058;2023-04-01T00:53:14;6.40;99.90
7411;DHT22;3747;48.628;9.058;2023-04-01T00:55:46;6.40;99.90
7411;DHT22;3747;48.628;9.058;2023-04-01T00:58:17;6.40;99.90
7411;DHT22;3747;48.628;9.058;2023-04-01T01:00:47;6.30;99.90
7411;DHT22;3747;48.628;9.058;2023-04-01T01:03:14;6.30;99.90
7411;DHT22;3747;48.628;9.058;2023-04-01T01:06:07;6.30;99.90
7411;DHT22;3747;48.628;9.058;2023-04-01T01:08:44;6.30;99.90
7411;DHT22;3747;48.628;9.058;2023-04-01T01:11:16;6.40;99.90
7411;DHT22;3747;48.628;9.058;2023-04-01T01:13:50;6.40;99.90
7411;DHT22;3747;48.628;9.058;2023-04-01T01:16:24;6.40;99.90
7411;DHT22;3747;48.628;9.058;2023-04-01T01:18:55;6.40;99.90
7411;DHT22;3747;48.628;9.058;2023-04-01T01:21:46;6.40;99.90
7411;DHT22;3747;48.628;9.058;2023-04-01T01:27:10;6.30;99.90
7411;DHT22;3747;48.628;9.058;2023-04-01T01:30:11;6.30;99.90
7411;DHT22;3747;48.628;9.058;2023-04-01T01:32:56;6.20;99.90
7411;DHT22;3747;48.628;9.058;2023-04-01T01:35:30;6.30;99.90
7411;DHT22;3747;48.628;9.058;2023-04-01T01:38:00;6.30;99.90
7411;DHT22;3747;48.628;9.058;2023-04-01T01:40:29;6.30;99.90
7411;DHT22;3747;48.628;9.058;2023-04-01T01:42:59;6.40;99.90
7411;DHT22;3747;48.628;9.058;2023-04-01T01:45:26;6.30;99.90
7411;DHT22;3747;48.628;9.058;2023-04-01T01:47:55;6.30;99.90
7411;DHT22;3747;48.628;9.058;2023-04-01T01:50:23;6.30;99.90
7411;DHT22;3747;48.628;9.058;2023-04-01T01:53:00;6.30;99.90
7411;DHT22;3747;48.628;9.058;2023-04-01T01:55:29;6.20;99.90
7411;DHT22;3747;48.628;9.058;2023-04-01T01:57:59;6.20;99.90
7411;DHT22;3747;48.628;9.058;2023-04-01T02:00:27;6.20;99.90
7411;DHT22;3747;48.628;9.058;2023-04-01T02:02:55;6.20;99.90
7411;DHT22;3747;48.628;9.058;2023-04-01T02:05:24;6.10;99.90
7411;DHT22;3747;48.628;9.058;2023-04-01T02:07:58;6.10;99.90
7411;DHT22;3747;48.628;9.058;2023-04-01T02:10:27;6.10;99.90
7411;DHT22;3747;48.628;9.058;2023-04-01T02:12:59;6.10;99.90
7411;DHT22;3747;48.628;9.058;2023-04-01T02:15:28;6.10;99.90
7411;DHT22;3747;48.628;9.058;2023-04-01T02:17:56;6.00;99.90
7411;DHT22;3747;48.628;9.058;2023-04-01T02:20:24;6.00;99.90
7411;DHT22;3747;48.628;9.058;2023-04-01T02:22:55;6.00;99.90
7411;DHT22;3747;48.628;9.058;2023-04-01T02:25:26;6.00;99.90
7411;DHT22;3747;48.628;9.058;2023-04-01T02:27:55;6.00;99.90
7411;DHT22;3747;48.628;9.058;2023-04-01T02:30:23;6.00;99.90
7411;DHT22;3747;48.628;9.058;2023-04-01T02:32:52;6.00;99.90
7411;DHT22;3747;48.628;9.058;2023-04-01T02:35:19;6.00;99.90
7411;DHT22;3747;48.628;9.058;2023-04-01T02:37:48;6.00;99.90
7411;DHT22;3747;48.628;9.058;2023-04-01T02:40:17;6.00;99.90
7411;DHT22;3747;48.628;9.058;2023-04-01T02:42:44;6.00;99.90
7411;DHT22;3747;48.628;9.058;2023-04-01T02:45:12;6.00;99.90
7411;DHT22;3747;48.628;9.058;2023-04-01T02:47:39;6.00;99.90
7411;DHT22;3747;48.628;9.058;2023-04-01T02:50:07;5.90;99.90
7411;DHT22;3747;48.628;9.058;2023-04-01T02:52:34;5.90;99.90
7411;DHT22;3747;48.628;9.058;2023-04-01T02:55:01;5.90;99.90
7411;DHT22;3747;48.628;9.058;2023-04-01T02:57:29;6.00;99.90
7411;DHT22;3747;48.628;9.058;2023-04-01T02:59:55;5.90;99.90
7411;DHT22;3747;48.628;9.058;2023-04-01T03:02:22;5.90;99.90
7411;DHT22;3747;48.628;9.058;2023-04-01T03:04:49;5.90;99.90
7411;DHT22;3747;48.628;9.058;2023-04-01T03:07:15;5.70;99.90
7411;DHT22;3747;48.628;9.058;2023-04-01T03:09:42;5.70;99.90
7411;DHT22;3747;48.628;9.058;2023-04-01T03:12:09;5.70;99.90
7411;DHT22;3747;48.628;9.058;2023-04-01T03:14:37;5.70;99.90
7411;DHT22;3747;48.628;9.058;2023-04-01T03:17:03;5.70;99.90
7411;DHT22;3747;48.628;9.058;2023-04-01T03:19:30;5.60;99.90
7411;DHT22;3747;48.628;9.058;2023-04-01T03:21:57;5.60;99.90
7411;DHT22;3747;48.628;9.058;2023-04-01T03:24:24;5.60;99.90
7411;DHT22;3747;48.628;9.058;2023-04-01T03:26:50;5.60;99.90
7411;DHT22;3747;48.628;9.058;2023-04-01T03:29:17;5.60;99.90
7411;DHT22;3747;48.628;9.058;2023-04-01T03:31:45;5.60;99.90
7411;DHT22;3747;48.628;9.058;2023-04-01T03:34:12;5.60;99.90
7411;DHT22;3747;48.628;9.058;2023-04-01T03:36:38;5.60;99.90
7411;DHT22;3747;48.628;9.058;2023-04-01T03:39:05;5.60;99.90
7411;DHT22;3747;48.628;9.058;2023-04-01T03:41:32;5.60;99.90
7411;DHT22;3747;48.628;9.058;2023-04-01T03:43:59;5.50;99.90
7411;DHT22;3747;48.628;9.058;2023-04-01T03:46:26;5.50;99.90
7411;DHT22;3747;48.628;9.058;2023-04-01T03:48:54;5.50;99.90
7411;DHT22;3747;48.628;9.058;2023-04-01T03:51:20;5.50;99.90
7411;DHT22;3747;48.628;9.058;2023-04-01T03:53:48;5.40;99.90
7411;DHT22;3747;48.628;9.058;2023-04-01T03:56:15;5.50;99.90
7411;DHT22;3747;48.628;9.058;2023-04-01T03:58:41;5.50;99.90
7411;DHT22;3747;48.628;9.058;2023-04-01T04:01:18;5.50;99.90
7411;DHT22;3747;48.628;9.058;2023-04-01T04:03:46;5.50;99.90
7411;DHT22;3747;48.628;9.058;2023-04-01T04:06:17;5.50;99.90
7411;DHT22;3747;48.628;9.058;2023-04-01T04:08:44;5.40;99.90
7411;DHT22;3747;48.628;9.058;2023-04-01T04:11:11;5.30;99.90
7411;DHT22;3747;48.628;9.058;2023-04-01T04:13:37;5.20;99.90
7411;DHT22;3747;48.628;9.058;2023-04-01T04:16:05;5.10;99.90
7411;DHT22;3747;48.628;9.058;2023-04-01T04:18:32;5.00;99.90
7411;DHT22;3747;48.628;9.058;2023-04-01T04:20:58;5.00;99.90
7411;DHT22;3747;48.628;9.058;2023-04-01T04:23:27;5.10;99.90
7411;DHT22;3747;48.628;9.058;2023-04-01T04:25:56;5.10;99.90
7411;DHT22;3747;48.628;9.058;2023-04-01T04:28:23;5.00;99.90
7411;DHT22;3747;48.628;9.058;2023-04-01T04:30:50;5.00;99.90
7411;DHT22;3747;48.628;9.058;2023-04-01T04:33:17;5.00;99.90
7411;DHT22;3747;48.628;9.058;2023-04-01T04:35:44;5.00;99.90
7411;DHT22;3747;48.628;9.058;2023-04-01T04:38:11;5.10;99.90
7411;DHT22;3747;48.628;9.058;2023-04-01T04:40:39;5.20;99.90
7411;DHT22;3747;48.628;9.058;2023-04-01T04:43:07;5.20;99.90
7411;DHT22;3747;48.628;9.058;2023-04-01T04:45:36;5.30;99.90
7411;DHT22;3747;48.628;9.058;2023-04-01T04:48:03;5.40;99.90
7411;DHT22;3747;48.628;9.058;2023-04-01T04:50:30;5.50;99.90
7411;DHT22;3747;48.628;9.058;2023-04-01T04:52:56;5.50;99.90
7411;DHT22;3747;48.628;9.058;2023-04-01T04:55:23;5.60;99.90
7411;DHT22;3747;48.628;9.058;2023-04-01T04:57:51;5.60;99.90
7411;DHT22;3747;48.628;9.058;2023-04-01T05:00:18;5.70;99.90
7411;DHT22;3747;48.628;9.058;2023-04-01T05:02:45;5.80;99.90
7411;DHT22;3747;48.628;9.058;2023-04-01T05:05:12;5.90;99.90
7411;DHT22;3747;48.628;9.058;2023-04-01T05:07:38;5.90;99.90
7411;DHT22;3747;48.628;9.058;2023-04-01T05:10:06;5.90;99.90
7411;DHT22;3747;48.628;9.058;2023-04-01T05:12:32;6.00;99.90
7411;DHT22;3747;48.628;9.058;2023-04-01T05:15:03;6.00;99.90
7411;DHT22;3747;48.628;9.058;2023-04-01T05:17:30;6.00;99.90
7411;DHT22;3747;48.628;9.058;2023-04-01T05:19:57;6.10;99.90
7411;DHT22;3747;48.628;9.058;2023-04-01T05:22:24;6.10;99.90
7411;DHT22;3747;48.628;9.058;2023-04-01T05:24:50;6.10;99.90
7411;DHT22;3747;48.628;9.058;2023-04-01T05:27:17;6.10;99.90
7411;DHT22;3747;48.628;9.058;2023-04-01T05:29:44;6.20;99.90
7411;DHT22;3747;48.628;9.058;2023-04-01T05:32:12;6.20;99.90
7411;DHT22;3747;48.628;9.058;2023-04-01T05:34:38;6.20;99.90
7411;DHT22;3747;48.628;9.058;2023-04-01T05:37:05;6.30;99.90
7411;DHT22;3747;48.628;9.058;2023-04-01T05:39:36;6.30;99.90
7411;DHT22;3747;48.628;9.058;2023-04-01T05:42:03;6.40;99.90
7411;DHT22;3747;48.628;9.058;2023-04-01T05:44:31;6.40;99.90
7411;DHT22;3747;48.628;9.058;2023-04-01T05:46:58;6.50;99.90
7411;DHT22;3747;48.628;9.058;2023-04-01T05:49:26;6.40;99.90
7411;DHT22;3747;48.628;9.058;2023-04-01T05:51:53;6.50;99.90
7411;DHT22;3747;48.628;9.058;2023-04-01T05:54:20;6.50;99.90
7411;DHT22;3747;48.628;9.058;2023-04-01T05:56:47;6.50;99.90
7411;DHT22;3747;48.628;9.058;2023-04-01T05:59:13;6.50;99.90
7411;DHT22;3747;48.628;9.058;2023-04-01T06:01:40;6.60;99.90
7411;DHT22;3747;48.628;9.058;2023-04-01T06:04:11;6.60;99.90
7411;DHT22;3747;48.628;9.058;2023-04-01T06:06:41;6.70;99.90
7411;DHT22;3747;48.628;9.058;2023-04-01T06:09:13;6.80;99.90
7411;DHT22;3747;48.628;9.058;2023-04-01T06:11:46;6.90;99.90
7411;DHT22;3747;48.628;9.058;2023-04-01T06:14:23;6.90;99.90
7411;DHT22;3747;48.628;9.058;2023-04-01T06:17:06;7.00;99.90
7411;DHT22;3747;48.628;9.058;2023-04-01T06:19:44;7.00;99.90
7411;DHT22;3747;48.628;9.058;2023-04-01T06:22:40;7.00;99.90
7411;DHT22;3747;48.628;9.058;2023-04-01T06:28:38;7.10;99.90
7411;DHT22;3747;48.628;9.058;2023-04-01T06:31:17;7.20;99.90
7411;DHT22;3747;48.628;9.058;2023-04-01T06:33:56;7.20;99.90
7411;DHT22;3747;48.628;9.058;2023-04-01T06:36:43;7.20;99.90
7411;DHT22;3747;48.628;9.058;2023-04-01T06:39:26;7.30;99.90
7411;DHT22;3747;48.628;9.058;2023-04-01T06:44:49;7.30;99.90
7411;DHT22;3747;48.628;9.058;2023-04-01T06:47:34;7.30;99.90
7411;DHT22;3747;48.628;9.058;2023-04-01T06:50:08;7.20;99.90
7411;DHT22;3747;48.628;9.058;2023-04-01T06:52:44;7.30;99.90
7411;DHT22;3747;48.628;9.058;2023-04-01T06:55:27;7.20;99.90
7411;DHT22;3747;48.628;9.058;2023-04-01T06:57:59;7.10;99.90
7411;DHT22;3747;48.628;9.058;2023-04-01T07:00:30;7.20;99.90
7411;DHT22;3747;48.628;9.058;2023-04-01T07:03:05;7.20;99.90
7411;DHT22;3747;48.628;9.058;2023-04-01T07:05:34;7.20;99.90
7411;DHT22;3747;48.628;9.058;2023-04-01T07:08:03;7.30;99.90
7411;DHT22;3747;48.628;9.058;2023-04-01T07:10:37;7.30;99.90
7411;DHT22;3747;48.628;9.058;2023-04-01T07:13:13;7.40;99.90
7411;DHT22;3747;48.628;9.058;2023-04-01T07:15:45;7.30;99.90
7411;DHT22;3747;48.628;9.058;2023-04-01T07:18:17;7.40;99.90
7411;DHT22;3747;48.628;9.058;2023-04-01T07:20:46;7.40;99.90
7411;DHT22;3747;48.628;9.058;2023-04-01T07:23:21;7.40;99.90
7411;DHT22;3747;48.628;9.058;2023-04-01T07:25:55;7.50;99.90
7411;DHT22;3747;48.628;9.058;2023-04-01T07:28:30;7.40;99.90
7411;DHT22;3747;48.628;9.058;2023-04-01T07:31:05;7.40;99.90
7411;DHT22;3747;48.628;9.058;2023-04-01T07:33:38;7.30;99.90
7411;DHT22;3747;48.628;9.058;2023-04-01T07:36:10;7.30;99.90
7411;DHT22;3747;48.628;9.058;2023-04-01T07:38:47;7.30;99.90
7411;DHT22;3747;48.628;9.058;2023-04-01T07:41:27;7.40;99.90
7411;DHT22;3747;48.628;9.058;2023-04-01T07:44:02;7.40;99.90
7411;DHT22;3747;48.628;9.058;2023-04-01T07:46:45;7.60;99.90
7411;DHT22;3747;48.628;9.058;2023-04-01T07:49:17;7.60;99.90
7411;DHT22;3747;48.628;9.058;2023-04-01T07:51:49;7.80;99.90
7411;DHT22;3747;48.628;9.058;2023-04-01T07:54:28;7.80;99.90
7411;DHT22;3747;48.628;9.058;2023-04-01T07:57:01;8.00;99.90
7411;DHT22;3747;48.628;9.058;2023-04-01T07:59:35;8.00;99.90
7411;DHT22;3747;48.628;9.058;2023-04-01T08:02:11;7.90;99.90
7411;DHT22;3747;48.628;9.058;2023-04-01T08:04:53;7.90;99.90
7411;DHT22;3747;48.628;9.058;2023-04-01T08:07:24;7.90;99.90
7411;DHT22;3747;48.628;9.058;2023-04-01T08:09:58;7.80;99.90
7411;DHT22;3747;48.628;9.058;2023-04-01T08:12:35;7.80;99.90
7411;DHT22;3747;48.628;9.058;2023-04-01T08:15:15;7.70;99.90
7411;DHT22;3747;48.628;9.058;2023-04-01T08:17:56;7.70;99.90
7411;DHT22;3747;48.628;9.058;2023-04-01T08:20:29;7.70;99.90
7411;DHT22;3747;48.628;9.058;2023-04-01T08:23:02;7.70;99.90
7411;DHT22;3747;48.628;9.058;2023-04-01T08:25:34;7.80;99.90
7411;DHT22;3747;48.628;9.058;2023-04-01T08:28:11;7.80;99.90
7411;DHT22;3747;48.628;9.058;2023-04-01T08:30:43;7.80;99.90
7411;DHT22;3747;48.628;9.058;2023-04-01T08:33:15;7.80;99.90
7411;DHT22;3747;48.628;9.058;2023-04-01T08:35:47;7.70;99.90
7411;DHT22;3747;48.628;9.058;2023-04-01T08:38:18;7.70;99.90
7411;DHT22;3747;48.628;9.058;2023-04-01T08:40:59;7.70;99.90
7411;DHT22;3747;48.628;9.058;2023-04-01T08:43:54;7.50;99.90
7411;DHT22;3747;48.628;9.058;2023-04-01T08:46:56;7.50;99.90
7411;DHT22;3747;48.628;9.058;2023-04-01T08:49:48;7.50;99.90
7411;DHT22;3747;48.628;9.058;2023-04-01T08:52:29;7.40;99.90
7411;DHT22;3747;48.628;9.058;2023-04-01T08:58:20;7.30;99.90
7411;DHT22;3747;48.628;9.058;2023-04-01T09:01:13;7.50;99.90
7411;DHT22;3747;48.628;9.058;2023-04-01T09:04:03;7.60;99.90
7411;DHT22;3747;48.628;9.058;2023-04-01T09:06:37;7.70;99.90
7411;DHT22;3747;48.628;9.058;2023-04-01T09:09:32;7.90;99.90
7411;DHT22;3747;48.628;9.058;2023-04-01T09:12:31;8.00;99.90
7411;DHT22;3747;48.628;9.058;2023-04-01T09:15:46;8.10;99.90
7411;DHT22;3747;48.628;9.058;2023-04-01T09:21:39;8.20;99.90
7411;DHT22;3747;48.628;9.058;2023-04-01T09:24:34;8.30;99.90
7411;DHT22;3747;48.628;9.058;2023-04-01T09:27:14;8.30;99.90
7411;DHT22;3747;48.628;9.058;2023-04-01T09:35:46;8.30;99.90
7411;DHT22;3747;48.628;9.058;2023-04-01T09:38:22;8.30;99.90
7411;DHT22;3747;48.628;9.058;2023-04-01T09:40:57;8.50;99.90
7411;DHT22;3747;48.628;9.058;2023-04-01T09:43:29;8.40;99.90
7411;DHT22;3747;48.628;9.058;2023-04-01T09:46:23;8.30;99.90
7411;DHT22;3747;48.628;9.058;2023-04-01T09:52:07;8.60;99.90
7411;DHT22;3747;48.628;9.058;2023-04-01T09:54:51;8.50;99.90
7411;DHT22;3747;48.628;9.058;2023-04-01T09:58:02;8.20;99.90
7411;DHT22;3747;48.628;9.058;2023-04-01T10:04:14;8.00;99.90
7411;DHT22;3747;48.628;9.058;2023-04-01T10:07:22;7.90;99.90
7411;DHT22;3747;48.628;9.058;2023-04-01T10:10:28;7.80;99.90
7411;DHT22;3747;48.628;9.058;2023-04-01T10:13:16;7.90;99.90
7411;DHT22;3747;48.628;9.058;2023-04-01T10:16:08;8.00;99.90
7411;DHT22;3747;48.628;9.058;2023-04-01T10:21:56;8.10;99.90
7411;DHT22;3747;48.628;9.058;2023-04-01T10:31:04;8.20;99.90
7411;DHT22;3747;48.628;9.058;2023-04-01T10:33:53;8.30;99.90
7411;DHT22;3747;48.628;9.058;2023-04-01T10:36:43;8.50;99.90
7411;DHT22;3747;48.628;9.058;2023-04-01T10:42:50;8.50;99.90
7411;DHT22;3747;48.628;9.058;2023-04-01T10:45:59;8.70;99.90
7411;DHT22;3747;48.628;9.058;2023-04-01T10:48:57;9.00;99.90
7411;DHT22;3747;48.628;9.058;2023-04-01T10:51:57;9.50;99.90
7411;DHT22;3747;48.628;9.058;2023-04-01T10:54:43;9.40;99.90
7411;DHT22;3747;48.628;9.058;2023-04-01T10:57:27;9.40;99.90
7411;DHT22;3747;48.628;9.058;2023-04-01T11:00:53;9.40;99.90
7411;DHT22;3747;48.628;9.058;2023-04-01T11:09:43;9.50;99.90
7411;DHT22;3747;48.628;9.058;2023-04-01T11:18:59;9.20;99.90
7411;DHT22;3747;48.628;9.058;2023-04-01T11:21:54;9.30;99.90
7411;DHT22;3747;48.628;9.058;2023-04-01T11:24:42;9.20;99.90
7411;DHT22;3747;48.628;9.058;2023-04-01T11:27:25;9.20;99.90
7411;DHT22;3747;48.628;9.058;2023-04-01T11:30:49;9.20;99.90
7411;DHT22;3747;48.628;9.058;2023-04-01T11:33:22;9.10;99.90
7411;DHT22;3747;48.628;9.058;2023-04-01T11:36:21;9.20;99.90
7411;DHT22;3747;48.628;9.058;2023-04-01T11:39:19;9.20;99.90
7411;DHT22;3747;48.628;9.058;2023-04-01T11:41:53;9.50;99.90
7411;DHT22;3747;48.628;9.058;2023-04-01T11:44:24;9.50;99.90
7411;DHT22;3747;48.628;9.058;2023-04-01T11:47:03;9.40;99.90
7411;DHT22;3747;48.628;9.058;2023-04-01T11:49:47;9.50;99.90
7411;DHT22;3747;48.628;9.058;2023-04-01T11:52:25;9.50;99.90
7411;DHT22;3747;48.628;9.058;2023-04-01T11:58:22;9.60;99.90
7411;DHT22;3747;48.628;9.058;2023-04-01T12:01:23;9.40;99.90
7411;DHT22;3747;48.628;9.058;2023-04-01T12:04:04;9.80;99.90
7411;DHT22;3747;48.628;9.058;2023-04-01T12:06:44;10.30;99.90
7411;DHT22;3747;48.628;9.058;2023-04-01T12:09:20;10.40;99.90
7411;DHT22;3747;48.628;9.058;2023-04-01T12:11:57;10.50;99.90
7411;DHT22;3747;48.628;9.058;2023-04-01T12:14:33;10.10;99.90
7411;DHT22;3747;48.628;9.058;2023-04-01T12:17:08;10.00;99.90
7411;DHT22;3747;48.628;9.058;2023-04-01T12:19:43;10.20;99.90
7411;DHT22;3747;48.628;9.058;2023-04-01T12:22:24;10.60;99.90
7411;DHT22;3747;48.628;9.058;2023-04-01T12:25:03;10.60;99.90
7411;DHT22;3747;48.628;9.058;2023-04-01T12:27:38;10.50;99.90
7411;DHT22;3747;48.628;9.058;2023-04-01T12:33:14;10.30;99.90
7411;DHT22;3747;48.628;9.058;2023-04-01T12:35:55;10.00;99.90
7411;DHT22;3747;48.628;9.058;2023-04-01T12:38:31;9.70;99.90
7411;DHT22;3747;48.628;9.058;2023-04-01T12:41:16;9.70;99.90
7411;DHT22;3747;48.628;9.058;2023-04-01T12:44:01;9.80;99.90
7411;DHT22;3747;48.628;9.058;2023-04-01T12:46:34;9.70;99.90
7411;DHT22;3747;48.628;9.058;2023-04-01T12:52:10;10.00;99.90
7411;DHT22;3747;48.628;9.058;2023-04-01T13:00:39;10.70;99.90
7411;DHT22;3747;48.628;9.058;2023-04-01T13:03:34;11.20;99.90
7411;DHT22;3747;48.628;9.058;2023-04-01T13:06:26;11.50;99.90
7411;DHT22;3747;48.628;9.058;2023-04-01T13:09:02;11.50;99.90
7411;DHT22;3747;48.628;9.058;2023-04-01T13:11:41;11.40;99.90
7411;DHT22;3747;48.628;9.058;2023-04-01T13:14:57;11.30;99.90
7411;DHT22;3747;48.628;9.058;2023-04-01T13:17:33;11.20;99.90
7411;DHT22;3747;48.628;9.058;2023-04-01T13:20:11;11.60;99.90
7411;DHT22;3747;48.628;9.058;2023-04-01T13:22:54;11.80;99.90
7411;DHT22;3747;48.628;9.058;2023-04-01T13:25:28;11.40;99.90
7411;DHT22;3747;48.628;9.058;2023-04-01T13:28:00;11.40;99.90
7411;DHT22;3747;48.628;9.058;2023-04-01T13:30:34;10.90;99.90
7411;DHT22;3747;48.628;9.058;2023-04-01T13:33:10;10.80;99.90
7411;DHT22;3747;48.628;9.058;2023-04-01T13:35:46;10.90;99.90
7411;DHT22;3747;48.628;9.058;2023-04-01T13:38:39;10.60;99.90
7411;DHT22;3747;48.628;9.058;2023-04-01T13:41:14;10.40;99.90
7411;DHT22;3747;48.628;9.058;2023-04-01T13:43:50;10.30;99.90
7411;DHT22;3747;48.628;9.058;2023-04-01T13:46:36;10.30;99.90
7411;DHT22;3747;48.628;9.058;2023-04-01T13:49:24;10.40;99.90
7411;DHT22;3747;48.628;9.058;2023-04-01T13:52:14;10.60;99.90
7411;DHT22;3747;48.628;9.058;2023-04-01T13:54:58;10.50;99.90
7411;DHT22;3747;48.628;9.058;2023-04-01T13:57:52;10.40;99.90
7411;DHT22;3747;48.628;9.058;2023-04-01T14:00:31;10.30;99.90
7411;DHT22;3747;48.628;9.058;2023-04-01T14:03:26;10.50;99.90
7411;DHT22;3747;48.628;9.058;2023-04-01T14:06:06;10.70;99.90
7411;DHT22;3747;48.628;9.058;2023-04-01T14:08:47;10.80;99.90
7411;DHT22;3747;48.628;9.058;2023-04-01T14:11:27;10.50;99.90
7411;DHT22;3747;48.628;9.058;2023-04-01T14:14:02;10.30;99.90
7411;DHT22;3747;48.628;9.058;2023-04-01T14:20:13;10.20;99.90
7411;DHT22;3747;48.628;9.058;2023-04-01T14:22:46;10.20;99.90
7411;DHT22;3747;48.628;9.058;2023-04-01T14:25:29;10.20;99.90
7411;DHT22;3747;48.628;9.058;2023-04-01T14:28:07;10.20;99.90
7411;DHT22;3747;48.628;9.058;2023-04-01T14:30:56;10.10;99.90
7411;DHT22;3747;48.628;9.058;2023-04-01T14:33:36;9.90;99.90
7411;DHT22;3747;48.628;9.058;2023-04-01T14:36:30;9.70;99.90
7411;DHT22;3747;48.628;9.058;2023-04-01T14:39:10;9.70;99.90
7411;DHT22;3747;48.628;9.058;2023-04-01T14:41:47;9.90;99.90
7411;DHT22;3747;48.628;9.058;2023-04-01T14:44:42;10.10;99.90
7411;DHT22;3747;48.628;9.058;2023-04-01T14:47:33;10.20;99.90
7411;DHT22;3747;48.628;9.058;2023-04-01T14:50:06;10.20;99.90
7411;DHT22;3747;48.628;9.058;2023-04-01T14:52:39;10.10;99.90
7411;DHT22;3747;48.628;9.058;2023-04-01T14:55:19;10.00;99.90
7411;DHT22;3747;48.628;9.058;2023-04-01T14:57:58;9.90;99.90
7411;DHT22;3747;48.628;9.058;2023-04-01T15:00:26;10.00;99.90
7411;DHT22;3747;48.628;9.058;2023-04-01T15:02:58;9.80;99.90
7411;DHT22;3747;48.628;9.058;2023-04-01T15:05:39;9.90;99.90
7411;DHT22;3747;48.628;9.058;2023-04-01T15:08:18;9.70;99.90
7411;DHT22;3747;48.628;9.058;2023-04-01T15:16:55;9.80;99.90
7411;DHT22;3747;48.628;9.058;2023-04-01T15:19:35;9.80;99.90
7411;DHT22;3747;48.628;9.058;2023-04-01T15:22:25;9.80;99.90
7411;DHT22;3747;48.628;9.058;2023-04-01T15:25:13;9.80;99.90
7411;DHT22;3747;48.628;9.058;2023-04-01T15:27:50;9.70;99.90
7411;DHT22;3747;48.628;9.058;2023-04-01T15:30:23;9.70;99.90
7411;DHT22;3747;48.628;9.058;2023-04-01T15:33:06;9.70;99.90
7411;DHT22;3747;48.628;9.058;2023-04-01T15:35:41;9.70;99.90
7411;DHT22;3747;48.628;9.058;2023-04-01T15:38:17;9.80;99.90
7411;DHT22;3747;48.628;9.058;2023-04-01T15:40:52;9.70;99.90
7411;DHT22;3747;48.628;9.058;2023-04-01T15:43:28;9.50;99.90
7411;DHT22;3747;48.628;9.058;2023-04-01T15:46:08;9.50;99.90
7411;DHT22;3747;48.628;9.058;2023-04-01T15:48:49;9.30;99.90
7411;DHT22;3747;48.628;9.058;2023-04-01T15:51:28;9.20;99.90
7411;DHT22;3747;48.628;9.058;2023-04-01T15:57:18;8.90;99.90
7411;DHT22;3747;48.628;9.058;2023-04-01T16:00:18;8.80;99.90
7411;DHT22;3747;48.628;9.058;2023-04-01T16:02:49;8.60;99.90
7411;DHT22;3747;48.628;9.058;2023-04-01T16:05:36;8.60;99.90
7411;DHT22;3747;48.628;9.058;2023-04-01T16:08:16;8.60;99.90
7411;DHT22;3747;48.628;9.058;2023-04-01T16:11:08;8.50;99.90
7411;DHT22;3747;48.628;9.058;2023-04-01T16:13:48;8.60;99.90
7411;DHT22;3747;48.628;9.058;2023-04-01T16:16:25;8.70;99.90
7411;DHT22;3747;48.628;9.058;2023-04-01T16:19:08;8.70;99.90
7411;DHT22;3747;48.628;9.058;2023-04-01T16:21:41;8.70;99.90
7411;DHT22;3747;48.628;9.058;2023-04-01T16:24:17;8.60;99.90
7411;DHT22;3747;48.628;9.058;2023-04-01T16:26:51;8.70;99.90
7411;DHT22;3747;48.628;9.058;2023-04-01T16:29:27;8.80;99.90
7411;DHT22;3747;48.628;9.058;2023-04-01T16:32:02;8.90;99.90
7411;DHT22;3747;48.628;9.058;2023-04-01T16:34:35;9.00;99.90
7411;DHT22;3747;48.628;9.058;2023-04-01T16:37:05;9.10;99.90
7411;DHT22;3747;48.628;9.058;2023-04-01T16:39:44;9.20;99.90
7411;DHT22;3747;48.628;9.058;2023-04-01T16:42:22;9.20;99.90
7411;DHT22;3747;48.628;9.058;2023-04-01T16:44:55;9.20;99.90
7411;DHT22;3747;48.628;9.058;2023-04-01T16:47:29;9.20;99.90
7411;DHT22;3747;48.628;9.058;2023-04-01T16:49:59;9.20;99.90
7411;DHT22;3747;48.628;9.058;2023-04-01T16:52:40;9.00;99.90
7411;DHT22;3747;48.628;9.058;2023-04-01T16:55:16;9.00;99.90
7411;DHT22;3747;48.628;9.058;2023-04-01T16:57:50;9.00;99.90
7411;DHT22;3747;48.628;9.058;2023-04-01T17:00:25;9.00;99.90
7411;DHT22;3747;48.628;9.058;2023-04-01T17:03:02;8.90;99.90
7411;DHT22;3747;48.628;9.058;2023-04-01T17:05:40;8.90;99.90
7411;DHT22;3747;48.628;9.058;2023-04-01T17:08:17;8.80;99.90
7411;DHT22;3747;48.628;9.058;2023-04-01T17:10:53;8.80;99.90
7411;DHT22;3747;48.628;9.058;2023-04-01T17:13:34;8.80;99.90
7411;DHT22;3747;48.628;9.058;2023-04-01T17:16:12;8.70;99.90
7411;DHT22;3747;48.628;9.058;2023-04-01T17:18:48;8.60;99.90
7411;DHT22;3747;48.628;9.058;2023-04-01T17:21:23;8.60;99.90
7411;DHT22;3747;48.628;9.058;2023-04-01T17:23:52;8.50;99.90
7411;DHT22;3747;48.628;9.058;2023-04-01T17:26:33;8.50;99.90
7411;DHT22;3747;48.628;9.058;2023-04-01T17:29:10;8.50;99.90
7411;DHT22;3747;48.628;9.058;2023-04-01T17:31:49;8.50;99.90
7411;DHT22;3747;48.628;9.058;2023-04-01T17:34:39;8.40;99.90
7411;DHT22;3747;48.628;9.058;2023-04-01T17:37:25;8.40;99.90
7411;DHT22;3747;48.628;9.058;2023-04-01T17:40:01;8.30;99.90
7411;DHT22;3747;48.628;9.058;2023-04-01T17:42:39;8.30;99.90
7411;DHT22;3747;48.628;9.058;2023-04-01T17:45:16;8.20;99.90
7411;DHT22;3747;48.628;9.058;2023-04-01T17:48:05;8.20;99.90
7411;DHT22;3747;48.628;9.058;2023-04-01T17:50:47;8.20;99.90
7411;DHT22;3747;48.628;9.058;2023-04-01T17:53:24;8.20;99.90
7411;DHT22;3747;48.628;9.058;2023-04-01T17:56:04;8.20;99.90
7411;DHT22;3747;48.628;9.058;2023-04-01T17:58:41;8.20;99.90
7411;DHT22;3747;48.628;9.058;2023-04-01T18:01:40;8.30;99.90
7411;DHT22;3747;48.628;9.058;2023-04-01T18:04:24;8.30;99.90
7411;DHT22;3747;48.628;9.058;2023-04-01T18:07:03;8.30;99.90
7411;DHT22;3747;48.628;9.058;2023-04-01T18:09:42;8.30;99.90
7411;DHT22;3747;48.628;9.058;2023-04-01T18:12:19;8.20;99.90
7411;DHT22;3747;48.628;9.058;2023-04-01T18:15:10;8.10;99.90
7411;DHT22;3747;48.628;9.058;2023-04-01T18:17:45;8.00;99.90
7411;DHT22;3747;48.628;9.058;2023-04-01T18:20:26;7.80;99.90
7411;DHT22;3747;48.628;9.058;2023-04-01T18:22:57;7.70;99.90
7411;DHT22;3747;48.628;9.058;2023-04-01T18:25:29;7.50;99.90
7411;DHT22;3747;48.628;9.058;2023-04-01T18:28:14;7.50;99.90
7411;DHT22;3747;48.628;9.058;2023-04-01T18:30:44;7.40;99.90
7411;DHT22;3747;48.628;9.058;2023-04-01T18:33:19;7.10;99.90
7411;DHT22;3747;48.628;9.058;2023-04-01T18:35:53;7.00;99.90